createdAt,value
2018-09-07T00:00:03.666Z,16.40
2018-09-07T00:01:03.651Z,16.00
2018-09-07T00:02:03.641Z,16.00
2018-09-07T00:03:03.625Z,16.20
2018-09-07T00:04:03.615Z,16.30
2018-09-07T00:05:03.600Z,16.50
2018-09-07T00:06:03.586Z,15.90
2018-09-07T00:07:03.573Z,15.60
2018-09-07T00:08:03.560Z,16.00
2018-09-07T00:09:03.546Z,15.50
2018-09-07T00:10:03.532Z,15.60
2018-09-07T00:11:03.521Z,15.90
2018-09-07T00:12:03.509Z,15.30
2018-09-07T00:13:03.499Z,16.20
2018-09-07T00:14:03.483Z,15.90
2018-09-07T00:15:03.468Z,14.70
2018-09-07T00:16:03.455Z,15.20
2018-09-07T00:17:03.442Z,14.40
2018-09-07T00:18:03.429Z,14.40
2018-09-07T00:19:03.417Z,14.00
2018-09-07T00:20:03.404Z,14.20
2018-09-07T00:21:03.389Z,14.00
2018-09-07T00:22:03.378Z,14.00
2018-09-07T00:23:03.365Z,14.00
2018-09-07T00:24:03.354Z,15.40
2018-09-07T00:25:03.344Z,13.80
2018-09-07T00:26:03.325Z,13.80
2018-09-07T00:27:03.314Z,15.00
2018-09-07T00:28:03.301Z,13.30
2018-09-07T00:29:03.285Z,14.40
2018-09-07T00:30:03.273Z,13.40
2018-09-07T00:31:03.259Z,15.00
2018-09-07T00:32:03.248Z,14.70
2018-09-07T00:33:03.233Z,15.50
2018-09-07T00:34:03.221Z,13.50
2018-09-07T00:35:03.208Z,14.50
2018-09-07T00:36:03.198Z,14.80
2018-09-07T00:37:03.188Z,14.80
2018-09-07T00:38:03.173Z,15.40
2018-09-07T00:39:03.154Z,16.50
2018-09-07T00:40:03.142Z,16.50
2018-09-07T00:41:03.131Z,16.20
2018-09-07T00:42:03.121Z,16.80
2018-09-07T00:43:03.107Z,16.10
2018-09-07T00:44:03.091Z,18.10
2018-09-07T00:45:03.078Z,18.30
2018-09-07T00:46:03.066Z,18.20
2018-09-07T00:47:03.053Z,18.20
2018-09-07T00:48:03.037Z,18.40
2018-09-07T00:49:03.023Z,18.40
2018-09-07T00:50:03.010Z,18.20
2018-09-07T00:51:02.997Z,19.00
2018-09-07T00:52:02.989Z,19.10
2018-09-07T00:53:02.979Z,18.40
2018-09-07T00:54:02.957Z,20.50
2018-09-07T00:55:02.946Z,19.40
2018-09-07T00:56:02.945Z,20.20
2018-09-07T00:57:02.917Z,20.10
2018-09-07T00:58:02.907Z,19.60
2018-09-07T00:59:02.892Z,20.30
2018-09-07T01:00:02.880Z,20.40
2018-09-07T01:01:02.869Z,20.70
2018-09-07T01:02:02.856Z,20.20
2018-09-07T01:03:02.839Z,20.60
2018-09-07T01:04:02.828Z,20.20
2018-09-07T01:05:02.814Z,21.10
2018-09-07T01:06:02.801Z,21.90
2018-09-07T01:07:02.788Z,21.90
2018-09-07T01:08:02.774Z,21.10
2018-09-07T01:09:02.771Z,21.40
2018-09-07T01:10:02.754Z,21.50
2018-09-07T01:11:02.736Z,23.70
2018-09-07T01:12:02.724Z,22.60
2018-09-07T01:13:02.708Z,22.20
2018-09-07T01:14:02.698Z,22.50
2018-09-07T01:15:02.711Z,22.90
2018-09-07T01:16:02.672Z,22.60
2018-09-07T01:17:02.653Z,22.10
2018-09-07T01:18:02.640Z,22.70
2018-09-07T01:19:02.631Z,23.40
2018-09-07T01:20:02.620Z,22.10
2018-09-07T01:21:02.603Z,22.30
2018-09-07T01:22:02.591Z,23.20
2018-09-07T01:23:02.580Z,22.70
2018-09-07T01:24:02.569Z,22.20
2018-09-07T01:25:02.548Z,22.40
2018-09-07T01:26:02.540Z,22.70
2018-09-07T01:27:02.534Z,23.20
2018-09-07T01:28:02.510Z,23.30
2018-09-07T01:29:02.506Z,22.80
2018-09-07T01:30:02.483Z,23.00
2018-09-07T01:31:02.471Z,22.50
2018-09-07T01:32:02.462Z,22.90
2018-09-07T01:33:02.443Z,23.00
2018-09-07T01:34:02.430Z,22.60
2018-09-07T01:35:02.416Z,22.80
2018-09-07T01:36:02.405Z,24.30
2018-09-07T01:37:02.388Z,22.90
2018-09-07T01:38:02.383Z,22.50
2018-09-07T01:39:02.366Z,22.50
2018-09-07T01:40:02.353Z,22.90
2018-09-07T01:41:02.337Z,22.80
2018-09-07T01:42:02.323Z,21.50
2018-09-07T01:43:02.310Z,22.80
2018-09-07T01:44:02.298Z,21.70
2018-09-07T01:45:02.284Z,22.80
2018-09-07T01:46:02.267Z,21.70
2018-09-07T01:47:02.256Z,21.60
2018-09-07T01:48:02.242Z,21.00
2018-09-07T01:49:02.229Z,22.20
2018-09-07T01:50:02.216Z,21.70
2018-09-07T01:51:02.202Z,21.50
2018-09-07T01:52:02.193Z,21.40
2018-09-07T01:53:02.172Z,23.50
2018-09-07T01:54:02.171Z,21.80
2018-09-07T01:55:02.151Z,21.90
2018-09-07T01:56:02.135Z,21.70
2018-09-07T01:57:02.127Z,21.30
2018-09-07T01:58:02.116Z,21.70
2018-09-07T01:59:02.097Z,21.60
2018-09-07T02:00:02.082Z,22.00
2018-09-07T02:01:02.074Z,24.20
2018-09-07T02:02:02.057Z,21.40
2018-09-07T02:03:02.040Z,21.80
2018-09-07T02:04:02.032Z,22.90
2018-09-07T02:05:02.017Z,20.60
2018-09-07T02:06:01.999Z,21.20
2018-09-07T02:07:01.991Z,21.50
2018-09-07T02:08:01.975Z,22.20
2018-09-07T02:09:01.964Z,23.70
2018-09-07T02:10:01.947Z,22.00
2018-09-07T02:11:01.930Z,21.70
2018-09-07T02:12:01.919Z,23.70
2018-09-07T02:13:01.910Z,22.40
2018-09-07T02:14:01.893Z,21.90
2018-09-07T02:15:01.878Z,24.40
2018-09-07T02:16:01.866Z,23.40
2018-09-07T02:17:01.850Z,22.80
2018-09-07T02:18:01.837Z,23.60
2018-09-07T02:19:01.825Z,22.90
2018-09-07T02:20:01.810Z,24.20
2018-09-07T02:21:01.813Z,25.50
2018-09-07T02:22:01.782Z,23.70
2018-09-07T02:23:01.772Z,23.70
2018-09-07T02:24:01.758Z,23.20
2018-09-07T02:25:01.743Z,23.80
2018-09-07T02:26:01.732Z,24.30
2018-09-07T02:27:01.721Z,24.10
2018-09-07T02:28:01.709Z,27.10
2018-09-07T02:29:01.689Z,23.80
2018-09-07T02:30:01.679Z,25.90
2018-09-07T02:31:01.665Z,24.10
2018-09-07T02:32:01.652Z,26.80
2018-09-07T02:33:01.638Z,24.00
2018-09-07T02:34:01.621Z,26.30
2018-09-07T02:35:01.609Z,24.60
2018-09-07T02:36:01.595Z,24.50
2018-09-07T02:37:01.586Z,23.00
2018-09-07T02:38:01.569Z,24.20
2018-09-07T02:39:01.556Z,25.90
2018-09-07T02:40:01.542Z,23.60
2018-09-07T02:41:01.527Z,24.40
2018-09-07T02:42:01.514Z,27.60
2018-09-07T02:43:01.502Z,24.40
2018-09-07T02:44:01.491Z,25.10
2018-09-07T02:45:01.475Z,26.90
2018-09-07T02:46:01.463Z,25.80
2018-09-07T02:47:01.448Z,26.70
2018-09-07T02:48:01.436Z,26.10
2018-09-07T02:49:01.476Z,28.20
2018-09-07T02:50:01.424Z,27.10
2018-09-07T02:51:01.397Z,27.80
2018-09-07T02:52:01.380Z,26.90
2018-09-07T02:53:01.369Z,26.70
2018-09-07T02:54:01.354Z,28.90
2018-09-07T02:55:01.340Z,28.80
2018-09-07T02:56:01.328Z,28.40
2018-09-07T02:57:01.313Z,26.00
2018-09-07T02:58:01.299Z,26.60
2018-09-07T02:59:01.286Z,27.30
2018-09-07T03:00:01.274Z,28.20
2018-09-07T03:01:01.259Z,27.40
2018-09-07T03:02:01.248Z,28.80
2018-09-07T03:03:01.232Z,31.80
2018-09-07T03:04:01.218Z,31.10
2018-09-07T03:05:01.203Z,28.30
2018-09-07T03:06:01.190Z,31.50
2018-09-07T03:07:01.175Z,30.00
2018-09-07T03:08:01.161Z,33.10
2018-09-07T03:09:01.149Z,34.20
2018-09-07T03:10:01.137Z,30.40
2018-09-07T03:11:01.120Z,31.50
2018-09-07T03:12:01.108Z,34.00
2018-09-07T03:13:01.092Z,32.50
2018-09-07T03:14:01.089Z,33.30
2018-09-07T03:15:01.067Z,35.80
2018-09-07T03:16:01.053Z,38.20
2018-09-07T03:17:01.043Z,36.50
2018-09-07T03:18:01.024Z,35.10
2018-09-07T03:19:01.010Z,34.70
2018-09-07T03:20:01.001Z,35.40
2018-09-07T03:21:00.986Z,34.20
2018-09-07T03:22:00.970Z,37.00
2018-09-07T03:23:00.957Z,33.40
2018-09-07T03:24:00.942Z,34.80
2018-09-07T03:25:00.932Z,35.40
2018-09-07T03:26:00.916Z,33.40
2018-09-07T03:27:00.903Z,36.30
2018-09-07T03:28:00.889Z,37.70
2018-09-07T03:29:00.875Z,34.90
2018-09-07T03:30:00.861Z,37.10
2018-09-07T03:31:00.851Z,40.30
2018-09-07T03:32:00.835Z,40.40
2018-09-07T03:33:00.821Z,36.40
2018-09-07T03:34:00.806Z,37.90
2018-09-07T03:35:00.793Z,39.10
2018-09-07T03:36:00.779Z,41.00
2018-09-07T03:37:00.764Z,37.30
2018-09-07T03:38:00.751Z,42.30
2018-09-07T03:39:00.737Z,35.50
2018-09-07T03:40:00.765Z,38.20
2018-09-07T03:41:00.711Z,36.60
2018-09-07T03:42:00.696Z,37.20
2018-09-07T03:43:00.683Z,35.80
2018-09-07T03:44:00.673Z,37.40
2018-09-07T03:45:00.654Z,36.80
2018-09-07T03:46:00.645Z,39.40
2018-09-07T03:47:00.634Z,37.00
2018-09-07T03:48:00.615Z,37.60
2018-09-07T03:49:00.600Z,41.30
2018-09-07T03:50:00.588Z,41.00
2018-09-07T03:51:00.574Z,40.70
2018-09-07T03:52:00.560Z,39.40
2018-09-07T03:53:00.545Z,39.50
2018-09-07T03:54:00.533Z,40.10
2018-09-07T03:55:00.521Z,38.40
2018-09-07T03:56:00.504Z,42.40
2018-09-07T03:57:00.489Z,40.50
2018-09-07T03:58:00.478Z,38.40
2018-09-07T03:59:00.462Z,39.70
2018-09-07T04:00:00.449Z,40.60
2018-09-07T04:01:00.439Z,39.80
2018-09-07T04:02:00.427Z,38.60
2018-09-07T04:03:00.411Z,38.60
2018-09-07T04:04:00.393Z,41.30
2018-09-07T04:05:00.380Z,39.20
2018-09-07T04:06:00.369Z,39.40
2018-09-07T04:07:00.354Z,38.30
2018-09-07T04:08:00.342Z,38.00
2018-09-07T04:09:00.326Z,39.00
2018-09-07T04:10:00.315Z,39.70
2018-09-07T04:11:00.330Z,42.20
2018-09-07T04:12:00.286Z,42.50
2018-09-07T04:13:00.270Z,39.10
2018-09-07T04:14:00.260Z,41.80
2018-09-07T04:15:00.248Z,41.60
2018-09-07T04:16:00.235Z,39.30
2018-09-07T04:17:00.216Z,39.20
2018-09-07T04:18:00.204Z,36.20
2018-09-07T04:19:00.197Z,38.30
2018-09-07T04:20:00.182Z,39.90
2018-09-07T04:21:00.165Z,40.00
2018-09-07T04:22:00.145Z,44.30
2018-09-07T04:23:00.132Z,43.50
2018-09-07T04:24:00.119Z,40.60
2018-09-07T04:25:00.104Z,41.20
2018-09-07T04:26:00.090Z,40.10
2018-09-07T04:27:00.078Z,43.50
2018-09-07T04:28:00.068Z,42.60
2018-09-07T04:29:00.059Z,39.10
2018-09-07T04:30:00.035Z,43.10
2018-09-07T04:31:00.022Z,41.00
2018-09-07T04:32:00.016Z,38.60
2018-09-07T04:32:59.992Z,41.10
2018-09-07T04:33:59.979Z,39.30
2018-09-07T04:34:59.964Z,42.10
2018-09-07T04:35:59.957Z,39.60
2018-09-07T04:36:59.940Z,43.80
2018-09-07T04:37:59.924Z,41.50
2018-09-07T04:38:59.911Z,39.30
2018-09-07T04:39:59.896Z,39.30
2018-09-07T04:40:59.939Z,41.50
2018-09-07T04:41:59.867Z,39.90
2018-09-07T04:42:59.857Z,42.80
2018-09-07T04:43:59.848Z,40.10
2018-09-07T04:44:59.829Z,41.60
2018-09-07T04:45:59.813Z,41.80
2018-09-07T04:46:59.800Z,41.70
2018-09-07T04:47:59.785Z,42.60
2018-09-07T04:48:59.771Z,42.30
2018-09-07T04:49:59.760Z,45.20
2018-09-07T04:50:59.749Z,41.70
2018-09-07T04:51:59.735Z,41.90
2018-09-07T04:52:59.721Z,46.90
2018-09-07T04:53:59.704Z,42.30
2018-09-07T04:54:59.689Z,47.30
2018-09-07T04:55:59.673Z,42.70
2018-09-07T04:56:59.660Z,42.00
2018-09-07T04:57:59.646Z,44.80
2018-09-07T04:58:59.636Z,47.20
2018-09-07T04:59:59.621Z,45.20
2018-09-07T05:00:59.611Z,45.20
2018-09-07T05:01:59.592Z,47.40
2018-09-07T05:02:59.580Z,43.30
2018-09-07T05:03:59.564Z,44.90
2018-09-07T05:04:59.548Z,41.90
2018-09-07T05:05:59.539Z,42.80
2018-09-07T05:06:59.532Z,48.30
2018-09-07T05:07:59.509Z,50.20
2018-09-07T05:08:59.491Z,48.10
2018-09-07T05:09:59.479Z,46.20
2018-09-07T05:10:59.465Z,47.20
2018-09-07T05:11:59.452Z,44.90
2018-09-07T05:12:59.435Z,48.80
2018-09-07T05:13:59.426Z,46.20
2018-09-07T05:14:59.419Z,46.00
2018-09-07T05:15:59.398Z,44.60
2018-09-07T05:16:59.380Z,46.30
2018-09-07T05:17:59.366Z,49.60
2018-09-07T05:18:59.352Z,47.60
2018-09-07T05:19:59.341Z,46.40
2018-09-07T05:20:59.323Z,44.90
2018-09-07T05:21:59.366Z,45.60
2018-09-07T05:22:59.295Z,45.80
2018-09-07T05:23:59.281Z,45.30
2018-09-07T05:24:59.266Z,43.50
2018-09-07T05:25:59.251Z,43.10
2018-09-07T05:26:59.242Z,47.10
2018-09-07T05:27:59.224Z,46.70
2018-09-07T05:28:59.215Z,43.10
2018-09-07T05:29:59.197Z,41.30
2018-09-07T05:30:59.188Z,46.20
2018-09-07T05:31:59.172Z,46.70
2018-09-07T05:32:59.154Z,44.90
2018-09-07T05:33:59.152Z,46.60
2018-09-07T05:34:59.134Z,45.70
2018-09-07T05:35:59.114Z,45.70
2018-09-07T05:36:59.099Z,44.40
2018-09-07T05:37:59.086Z,47.00
2018-09-07T05:38:59.070Z,44.10
2018-09-07T05:39:59.057Z,46.70
2018-09-07T05:40:59.041Z,51.10
2018-09-07T05:41:59.029Z,47.50
2018-09-07T05:42:59.027Z,48.10
2018-09-07T05:43:59.000Z,49.20
2018-09-07T05:44:58.995Z,49.90
2018-09-07T05:45:58.980Z,43.00
2018-09-07T05:46:58.959Z,43.90
2018-09-07T05:47:58.947Z,45.70
2018-09-07T05:48:58.937Z,48.10
2018-09-07T05:49:58.920Z,47.50
2018-09-07T05:50:58.906Z,45.70
2018-09-07T05:51:58.897Z,46.50
2018-09-07T05:52:58.889Z,46.00
2018-09-07T05:53:58.869Z,46.50
2018-09-07T05:54:58.852Z,43.80
2018-09-07T05:55:58.833Z,43.90
2018-09-07T05:56:58.822Z,41.50
2018-09-07T05:57:58.810Z,40.80
2018-09-07T05:58:58.795Z,47.00
2018-09-07T05:59:58.779Z,41.70
2018-09-07T06:00:58.766Z,43.20
2018-09-07T06:01:58.754Z,43.70
2018-09-07T06:02:58.737Z,41.10
2018-09-07T06:03:58.727Z,43.50
2018-09-07T06:04:58.709Z,41.90
2018-09-07T06:05:58.695Z,43.00
2018-09-07T06:06:58.680Z,42.00
2018-09-07T06:07:58.666Z,45.70
2018-09-07T06:08:58.651Z,43.40
2018-09-07T06:09:58.645Z,45.80
2018-09-07T06:10:58.629Z,43.60
2018-09-07T06:11:58.623Z,44.10
2018-09-07T06:12:58.598Z,42.20
2018-09-07T06:13:58.594Z,42.00
2018-09-07T06:14:58.571Z,43.10
2018-09-07T06:15:58.622Z,44.30
2018-09-07T06:16:58.543Z,46.30
2018-09-07T06:17:58.530Z,46.10
2018-09-07T06:18:58.528Z,45.50
2018-09-07T06:19:58.503Z,47.60
2018-09-07T06:20:58.488Z,50.50
2018-09-07T06:21:58.474Z,45.80
2018-09-07T06:22:58.461Z,46.00
2018-09-07T06:23:58.452Z,45.70
2018-09-07T06:24:58.435Z,41.90
2018-09-07T06:25:58.423Z,42.70
2018-09-07T06:26:58.411Z,45.50
2018-09-07T06:27:58.396Z,43.10
2018-09-07T06:28:58.379Z,44.00
2018-09-07T06:29:58.375Z,40.80
2018-09-07T06:30:58.353Z,41.50
2018-09-07T06:31:58.340Z,43.60
2018-09-07T06:32:58.388Z,43.20
2018-09-07T06:33:58.317Z,45.20
2018-09-07T06:34:58.297Z,42.90
2018-09-07T06:35:58.284Z,43.40
2018-09-07T06:36:58.316Z,39.10
2018-09-07T06:37:58.257Z,41.30
2018-09-07T06:38:58.384Z,44.60
2018-09-07T06:39:58.232Z,43.80
2018-09-07T06:40:58.216Z,45.40
2018-09-07T06:41:58.207Z,44.00
2018-09-07T06:42:58.193Z,46.70
2018-09-07T06:43:58.177Z,45.70
2018-09-07T06:44:58.167Z,46.80
2018-09-07T06:45:58.150Z,47.70
2018-09-07T06:46:58.205Z,47.20
2018-09-07T06:47:58.127Z,48.30
2018-09-07T06:48:58.116Z,56.00
2018-09-07T06:49:58.104Z,53.30
2018-09-07T06:50:58.084Z,51.20
2018-09-07T06:51:58.070Z,53.60
2018-09-07T06:52:58.057Z,52.60
2018-09-07T06:53:58.041Z,58.20
2018-09-07T06:54:58.031Z,54.80
2018-09-07T06:55:58.023Z,53.70
2018-09-07T06:56:58.007Z,53.60
2018-09-07T06:57:57.996Z,53.00
2018-09-07T06:58:57.979Z,49.60
2018-09-07T06:59:57.967Z,52.80
2018-09-07T07:00:57.957Z,50.90
2018-09-07T07:01:57.942Z,52.70
2018-09-07T07:02:58.020Z,50.30
2018-09-07T07:03:57.917Z,56.00
2018-09-07T07:04:57.909Z,52.20
2018-09-07T07:05:57.892Z,54.90
2018-09-07T07:06:57.880Z,51.90
2018-09-07T07:07:57.864Z,57.70
2018-09-07T07:08:57.850Z,59.60
2018-09-07T07:09:57.838Z,54.60
2018-09-07T07:10:57.830Z,56.80
2018-09-07T07:11:57.813Z,60.80
2018-09-07T07:12:57.805Z,63.80
2018-09-07T07:13:57.795Z,61.70
2018-09-07T07:14:57.777Z,62.70
2018-09-07T07:15:57.766Z,67.70
2018-09-07T07:16:57.755Z,66.40
2018-09-07T07:17:57.737Z,65.80
2018-09-07T07:18:57.721Z,66.50
2018-09-07T07:19:57.708Z,65.20
2018-09-07T07:20:57.697Z,67.70
2018-09-07T07:21:57.684Z,69.20
2018-09-07T07:22:57.671Z,66.40
2018-09-07T07:23:57.661Z,63.20
2018-09-07T07:24:57.647Z,65.40
2018-09-07T07:25:57.628Z,60.60
2018-09-07T07:26:57.614Z,66.70
2018-09-07T07:27:57.605Z,58.50
2018-09-07T07:28:57.599Z,62.00
2018-09-07T07:29:57.572Z,64.70
2018-09-07T07:30:57.566Z,58.40
2018-09-07T07:31:57.547Z,60.20
2018-09-07T07:32:57.540Z,59.90
2018-09-07T07:33:57.520Z,61.10
2018-09-07T07:34:57.524Z,56.90
2018-09-07T07:35:57.494Z,59.00
2018-09-07T07:36:57.484Z,60.80
2018-09-07T07:37:57.469Z,52.50
2018-09-07T07:38:57.452Z,53.00
2018-09-07T07:39:57.444Z,56.10
2018-09-07T07:40:57.436Z,52.00
2018-09-07T07:41:57.412Z,52.80
2018-09-07T07:42:57.409Z,47.80
2018-09-07T07:43:57.386Z,47.50
2018-09-07T07:44:57.372Z,47.00
2018-09-07T07:45:57.359Z,48.60
2018-09-07T07:46:57.347Z,49.20
2018-09-07T07:47:57.437Z,51.30
2018-09-07T07:48:57.320Z,46.50
2018-09-07T07:49:57.309Z,46.80
2018-09-07T07:50:57.293Z,47.20
2018-09-07T07:51:57.284Z,45.30
2018-09-07T07:52:57.266Z,44.30
2018-09-07T07:53:57.253Z,44.50
2018-09-07T07:54:57.244Z,44.80
2018-09-07T07:55:57.232Z,47.40
2018-09-07T07:56:57.278Z,44.90
2018-09-07T07:57:57.204Z,44.70
2018-09-07T07:58:57.191Z,44.00
2018-09-07T07:59:57.176Z,45.80
2018-09-07T08:00:57.161Z,44.30
2018-09-07T08:01:57.151Z,46.80
2018-09-07T08:02:57.142Z,46.10
2018-09-07T08:03:57.127Z,46.20
2018-09-07T08:04:57.114Z,44.60
2018-09-07T08:05:57.099Z,45.90
2018-09-07T08:06:57.101Z,46.80
2018-09-07T08:07:57.083Z,43.00
2018-09-07T08:08:57.064Z,46.30
2018-09-07T08:09:57.047Z,45.80
2018-09-07T08:10:57.037Z,47.00
2018-09-07T08:11:57.024Z,46.40
2018-09-07T08:12:57.007Z,46.90
2018-09-07T08:13:56.996Z,46.10
2018-09-07T08:14:56.986Z,47.10
2018-09-07T08:15:56.976Z,45.30
2018-09-07T08:16:56.958Z,47.80
2018-09-07T08:17:56.949Z,45.60
2018-09-07T08:18:56.933Z,45.80
2018-09-07T08:19:56.954Z,46.50
2018-09-07T08:20:56.908Z,47.40
2018-09-07T08:21:56.895Z,45.10
2018-09-07T08:22:56.887Z,46.70
2018-09-07T08:23:56.872Z,44.50
2018-09-07T08:24:56.861Z,46.50
2018-09-07T08:25:56.844Z,44.30
2018-09-07T08:26:56.833Z,45.50
2018-09-07T08:27:56.818Z,44.00
2018-09-07T08:28:56.807Z,44.70
2018-09-07T08:29:56.792Z,43.70
2018-09-07T08:30:56.782Z,41.00
2018-09-07T08:31:56.770Z,41.10
2018-09-07T08:32:56.887Z,41.30
2018-09-07T08:33:56.762Z,40.30
2018-09-07T08:34:56.732Z,39.50
2018-09-07T08:35:56.723Z,37.10
2018-09-07T08:36:56.713Z,37.50
2018-09-07T08:37:56.693Z,41.00
2018-09-07T08:38:56.684Z,37.20
2018-09-07T08:39:56.671Z,38.40
2018-09-07T08:40:56.655Z,38.90
2018-09-07T08:41:56.646Z,39.20
2018-09-07T08:42:56.629Z,38.80
2018-09-07T08:43:56.620Z,37.20
2018-09-07T08:44:56.604Z,37.30
2018-09-07T08:45:56.597Z,37.20
2018-09-07T08:46:56.581Z,36.20
2018-09-07T08:47:56.573Z,38.60
2018-09-07T08:48:56.552Z,36.70
2018-09-07T08:49:56.540Z,36.20
2018-09-07T08:50:56.527Z,36.40
2018-09-07T08:51:56.518Z,36.20
2018-09-07T08:52:56.501Z,36.80
2018-09-07T08:53:56.489Z,35.30
2018-09-07T08:54:56.525Z,35.30
2018-09-07T08:55:56.462Z,35.30
2018-09-07T08:56:56.452Z,36.20
2018-09-07T08:57:56.435Z,35.10
2018-09-07T08:58:56.439Z,34.70
2018-09-07T08:59:56.412Z,41.70
2018-09-07T09:00:56.409Z,35.50
2018-09-07T09:01:56.384Z,41.90
2018-09-07T09:02:56.369Z,36.60
2018-09-07T09:03:56.357Z,38.30
2018-09-07T09:04:56.342Z,41.70
2018-09-07T09:05:56.329Z,35.10
2018-09-07T09:06:56.330Z,35.60
2018-09-07T09:07:56.303Z,37.50
2018-09-07T09:08:56.293Z,37.60
2018-09-07T09:09:56.278Z,36.80
2018-09-07T09:10:56.265Z,36.80
2018-09-07T09:11:56.254Z,35.10
2018-09-07T09:12:56.236Z,36.50
2018-09-07T09:13:56.226Z,40.50
2018-09-07T09:14:56.214Z,37.00
2018-09-07T09:15:56.220Z,37.90
2018-09-07T09:16:56.200Z,38.40
2018-09-07T09:17:56.172Z,38.20
2018-09-07T09:18:56.159Z,40.50
2018-09-07T09:19:56.145Z,39.80
2018-09-07T09:20:56.130Z,37.80
2018-09-07T09:21:56.122Z,39.00
2018-09-07T09:22:56.107Z,38.70
2018-09-07T09:23:56.102Z,41.70
2018-09-07T09:24:56.081Z,43.10
2018-09-07T09:25:56.063Z,41.50
2018-09-07T09:26:56.052Z,35.30
2018-09-07T09:27:56.042Z,38.10
2018-09-07T09:28:56.023Z,39.10
2018-09-07T09:29:56.008Z,39.00
2018-09-07T09:30:56.009Z,36.50
2018-09-07T09:31:55.983Z,37.50
2018-09-07T09:32:56.040Z,34.90
2018-09-07T09:33:55.959Z,36.50
2018-09-07T09:34:55.942Z,37.50
2018-09-07T09:35:55.928Z,34.50
2018-09-07T09:36:55.921Z,36.10
2018-09-07T09:37:55.901Z,37.20
2018-09-07T09:38:55.895Z,39.40
2018-09-07T09:39:55.884Z,41.30
2018-09-07T09:40:55.861Z,37.00
2018-09-07T09:41:55.847Z,37.70
2018-09-07T09:42:55.832Z,34.90
2018-09-07T09:43:55.817Z,39.10
2018-09-07T09:44:55.808Z,40.40
2018-09-07T09:45:55.811Z,39.40
2018-09-07T09:46:55.780Z,36.80
2018-09-07T09:47:55.765Z,38.10
2018-09-07T09:48:55.751Z,40.20
2018-09-07T09:49:55.738Z,39.60
2018-09-07T09:50:55.727Z,38.60
2018-09-07T09:51:55.711Z,38.60
2018-09-07T09:52:55.762Z,41.30
2018-09-07T09:53:55.694Z,38.90
2018-09-07T09:54:55.669Z,40.80
2018-09-07T09:55:55.656Z,38.90
2018-09-07T09:56:55.675Z,38.70
2018-09-07T09:57:55.627Z,39.40
2018-09-07T09:58:55.621Z,39.50
2018-09-07T09:59:55.605Z,36.10
2018-09-07T10:00:55.585Z,36.50
2018-09-07T10:01:55.581Z,37.00
2018-09-07T10:02:55.560Z,37.20
2018-09-07T10:03:55.544Z,40.70
2018-09-07T10:04:55.530Z,38.80
2018-09-07T10:05:55.519Z,34.80
2018-09-07T10:06:55.508Z,36.10
2018-09-07T10:07:55.495Z,34.20
2018-09-07T10:08:55.475Z,36.00
2018-09-07T10:09:55.460Z,36.50
2018-09-07T10:10:55.446Z,33.70
2018-09-07T10:11:55.493Z,39.00
2018-09-07T10:12:55.430Z,32.20
2018-09-07T10:13:55.416Z,31.30
2018-09-07T10:14:55.403Z,29.40
2018-09-07T10:15:55.383Z,30.90
2018-09-07T10:16:55.378Z,30.70
2018-09-07T10:17:55.358Z,32.70
2018-09-07T10:18:55.371Z,29.20
2018-09-07T10:19:55.329Z,29.50
2018-09-07T10:20:55.310Z,27.10
2018-09-07T10:21:55.299Z,28.80
2018-09-07T10:22:55.294Z,29.40
2018-09-07T10:23:55.273Z,28.00
2018-09-07T10:24:55.256Z,27.50
2018-09-07T10:25:55.246Z,28.00
2018-09-07T10:26:55.233Z,29.70
2018-09-07T10:27:55.219Z,26.00
2018-09-07T10:28:55.206Z,27.00
2018-09-07T10:29:55.191Z,27.10
2018-09-07T10:30:55.176Z,25.80
2018-09-07T10:31:55.172Z,25.90
2018-09-07T10:32:55.150Z,26.30
2018-09-07T10:33:55.138Z,25.70
2018-09-07T10:34:55.135Z,25.40
2018-09-07T10:35:55.117Z,22.60
2018-09-07T10:36:55.104Z,22.90
2018-09-07T10:37:55.089Z,21.30
2018-09-07T10:38:55.073Z,21.40
2018-09-07T10:39:55.063Z,19.00
2018-09-07T10:40:55.049Z,19.60
2018-09-07T10:41:55.043Z,20.40
2018-09-07T10:42:55.044Z,18.80
2018-09-07T10:43:55.031Z,19.30
2018-09-07T10:44:55.007Z,18.50
2018-09-07T10:45:54.998Z,18.80
2018-09-07T10:46:54.984Z,17.70
2018-09-07T10:47:54.979Z,18.30
2018-09-07T10:48:54.967Z,16.50
2018-09-07T10:49:54.949Z,16.80
2018-09-07T10:50:54.944Z,15.60
2018-09-07T10:51:54.923Z,15.60
2018-09-07T10:52:54.910Z,15.90
2018-09-07T10:53:54.900Z,15.20
2018-09-07T10:54:54.886Z,14.50
2018-09-07T10:55:54.877Z,14.70
2018-09-07T10:56:54.868Z,13.30
2018-09-07T10:57:54.856Z,14.20
2018-09-07T10:58:54.845Z,13.60
2018-09-07T10:59:54.837Z,13.30
2018-09-07T11:00:54.832Z,13.10
2018-09-07T11:01:54.814Z,12.60
2018-09-07T11:02:54.809Z,11.40
2018-09-07T11:03:54.794Z,12.40
2018-09-07T11:04:54.784Z,12.00
2018-09-07T11:05:54.771Z,12.70
2018-09-07T11:06:54.761Z,11.80
2018-09-07T11:07:54.754Z,11.90
2018-09-07T11:08:54.744Z,11.30
2018-09-07T11:09:54.740Z,11.20
2018-09-07T11:10:54.717Z,10.90
2018-09-07T11:11:54.708Z,10.40
2018-09-07T11:12:54.695Z,9.70
2018-09-07T11:13:54.700Z,9.90
2018-09-07T11:14:54.675Z,9.60
2018-09-07T11:15:54.675Z,9.30
2018-09-07T11:16:54.654Z,9.10
2018-09-07T11:17:54.648Z,8.70
2018-09-07T11:18:54.636Z,8.90
2018-09-07T11:19:54.624Z,9.10
2018-09-07T11:20:54.664Z,9.20
2018-09-07T11:21:54.603Z,8.40
2018-09-07T11:22:54.591Z,8.40
2018-09-07T11:23:54.586Z,8.50
2018-09-07T11:24:54.570Z,9.10
2018-09-07T11:25:54.565Z,9.40
2018-09-07T11:26:54.555Z,9.00
2018-09-07T11:27:54.540Z,55.50
2018-09-07T11:28:54.532Z,11.20
2018-09-07T11:29:54.519Z,8.60
2018-09-07T11:30:54.509Z,7.80
2018-09-07T11:31:54.495Z,7.40
2018-09-07T11:32:54.487Z,8.20
2018-09-07T11:33:54.478Z,7.90
2018-09-07T11:34:54.463Z,8.10
2018-09-07T11:35:54.452Z,9.30
2018-09-07T11:36:54.448Z,8.20
2018-09-07T11:37:54.431Z,7.60
2018-09-07T11:38:54.431Z,7.80
2018-09-07T11:39:54.413Z,8.90
2018-09-07T11:40:54.397Z,8.70
2018-09-07T11:41:54.387Z,9.10
2018-09-07T11:42:54.379Z,8.50
2018-09-07T11:43:54.366Z,8.20
2018-09-07T11:44:54.355Z,7.80
2018-09-07T11:45:54.345Z,8.50
2018-09-07T11:46:54.337Z,8.20
2018-09-07T11:47:54.319Z,7.40
2018-09-07T11:48:54.321Z,8.80
2018-09-07T11:49:54.304Z,8.60
2018-09-07T11:50:54.288Z,8.20
2018-09-07T11:51:54.276Z,8.80
2018-09-07T11:52:54.264Z,9.50
2018-09-07T11:53:54.256Z,8.50
2018-09-07T11:54:54.253Z,8.60
2018-09-07T11:55:54.238Z,9.20
2018-09-07T11:56:54.222Z,11.20
2018-09-07T11:57:54.218Z,9.70
2018-09-07T11:58:54.210Z,8.30
2018-09-07T11:59:54.188Z,8.10
2018-09-07T12:00:54.177Z,8.80
2018-09-07T12:01:54.227Z,8.40
2018-09-07T12:02:54.164Z,8.30
2018-09-07T12:03:54.144Z,8.00
2018-09-07T12:04:54.138Z,7.90
2018-09-07T12:05:54.131Z,8.60
2018-09-07T12:06:54.115Z,8.40
2018-09-07T12:07:54.106Z,7.90
2018-09-07T12:08:54.093Z,7.80
2018-09-07T12:09:54.086Z,7.60
2018-09-07T12:10:54.077Z,7.60
2018-09-07T12:11:54.068Z,7.20
2018-09-07T12:12:54.232Z,7.50
2018-09-07T12:13:54.049Z,9.80
2018-09-07T12:14:54.035Z,8.80
2018-09-07T12:15:54.028Z,10.30
2018-09-07T12:16:54.026Z,13.10
2018-09-07T12:17:54.010Z,13.40
2018-09-07T12:18:54.003Z,11.80
2018-09-07T12:19:53.993Z,7.00
2018-09-07T12:20:53.981Z,7.60
2018-09-07T12:21:53.964Z,6.60
2018-09-07T12:22:53.959Z,8.00
2018-09-07T12:23:54.033Z,8.40
2018-09-07T12:24:53.934Z,12.40
2018-09-07T12:25:53.931Z,8.30
2018-09-07T12:26:53.922Z,32.00
2018-09-07T12:27:53.915Z,14.50
2018-09-07T12:28:53.905Z,6.00
2018-09-07T12:29:53.884Z,9.90
2018-09-07T12:30:53.874Z,9.60
2018-09-07T12:31:53.870Z,8.20
2018-09-07T12:32:53.865Z,5.70
2018-09-07T12:33:53.848Z,7.60
2018-09-07T12:34:53.837Z,5.20
2018-09-07T12:35:53.830Z,7.30
2018-09-07T12:36:53.821Z,5.30
2018-09-07T12:37:53.807Z,6.20
2018-09-07T12:38:53.802Z,6.60
2018-09-07T12:39:53.789Z,6.00
2018-09-07T12:40:53.779Z,4.40
2018-09-07T12:41:53.820Z,4.70
2018-09-07T12:42:53.769Z,4.90
2018-09-07T12:43:53.758Z,4.50
2018-09-07T12:44:53.740Z,7.40
2018-09-07T12:45:53.732Z,4.30
2018-09-07T12:46:53.721Z,7.20
2018-09-07T12:47:53.716Z,4.50
2018-09-07T12:48:53.712Z,5.50
2018-09-07T12:49:53.697Z,5.90
2018-09-07T12:50:53.688Z,5.50
2018-09-07T12:51:53.678Z,4.00
2018-09-07T12:52:53.665Z,4.50
2018-09-07T12:53:53.659Z,3.60
2018-09-07T12:54:53.658Z,4.50